Shimojishima Airport
RORS : now visible

Airfield :











YOU CAN JOIN US ON...

 
LOGIN :

Register | Disclaimer

   EN    FR    IT 

 









Legend :    VFR   Marginal VFR   IFR   Intensive IFR   Very Intensive IFR
Visi :
Ceiling :
>= 8 km
>= 3000ft
5 to 8 km
1000 to 3000 ft
1500m to 5 km
500 to 1000 ft
800 to 1500m
200 to 500 ft
< 800m
< 200 ft
Symbols :   Thunderstorms  Fog  Heavy snow  Heavy precipitations  Wind > 20 kt







- Airport Elevation : 54 ft
- IATA code : SHI


RORS - Shimojishima

CURRENT METAR :
  • 210900Z 26018G32KT 1500 R35/1000V1500N +SHRA FEW004 SCT010 BKN018 25/25 Q0998

EXPIRED METARs :
  • 210841Z 27020G35KT 2000 R35/P2000N SHRA BR FEW007 SCT010 BKN020 25/25 Q0998 RMK 2ST007 4CU010 6CU020 A2948
  • 210800Z 26018G30KT 6000 -SHRA SCT012 BKN020 26/25 Q0997
  • 210726Z 26019G33KT 230V300 5000 -SHRA BR SCT010 BKN020 26/25 Q0996 RMK 4CU010 6CU020 A2944
  • 210700Z 26020G34KT 4000 R35/1600VP2000N -SHRA BR FEW008 BKN012 BKN023 26/25 Q0996

TAF N/A
No reported NOTAMs for that airfield.



MET'MAP, your aeronautical weather chart ! - Copyright ORBIFLY December 2007 - Disclaimer

ORBIFLY MET'MAP TEAM :

Programming & Development : Alexandra Zaïnal
Concept & Development : Baudouin d'Aumeries
Co-Development & Prog : Marc-Olivier Méhu
Technical & hardware support : Manuel Goepfert

Contact : metmap@orbifly.com




SOURCES & CREDITS :

   NOAA       Earth
Advisory